Time;durP1;ratioP1;P1;durP2;ratioP2;P2;SDS_P1;SDS_P2;PMS_P1;PMS_P2;Temp;Humidity;BMP_temperature;BMP_pressure;BME280_temperature;BME280_humidity;BME280_pressure;Samples;Min_cycle;Max_cycle;Signal;HPM_P1;HPM_P2
2022/08/05 00:01:49;;;;;;;20.60;11.65;;;14.40;99.90;;;;;;5053957;28;20104;-70
2022/08/05 00:04:16;;;;;;;16.10;9.57;;;14.40;99.90;;;;;;5055515;28;20021;-70
2022/08/05 00:06:41;;;;;;;17.25;12.40;;;14.40;99.90;;;;;;5055087;28;20064;-70
2022/08/05 00:09:07;;;;;;;18.75;11.00;;;14.30;99.90;;;;;;5054194;28;20056;-69
2022/08/05 00:11:32;;;;;;;16.48;10.65;;;14.30;99.90;;;;;;5055089;28;20161;-70
2022/08/05 00:13:58;;;;;;;16.25;10.63;;;14.30;99.90;;;;;;5054888;28;20032;-70
2022/08/05 00:16:24;;;;;;;13.95;10.10;;;14.20;99.90;;;;;;5054924;28;20035;-70
2022/08/05 00:18:49;;;;;;;14.10;10.75;;;14.20;99.90;;;;;;5055163;28;20377;-70
2022/08/05 00:21:16;;;;;;;13.82;10.88;;;14.10;99.90;;;;;;5054931;28;20023;-70
2022/08/05 00:23:44;;;;;;;17.40;11.48;;;14.10;99.90;;;;;;5053926;28;20477;-70
2022/08/05 00:26:10;;;;;;;17.63;10.73;;;14.00;99.90;;;;;;5054894;28;20117;-70
2022/08/05 00:28:36;;;;;;;16.40;10.85;;;14.00;99.90;;;;;;5055014;28;20468;-70
2022/08/05 00:31:02;;;;;;;19.55;13.00;;;14.00;99.90;;;;;;5052836;28;20075;-70
2022/08/05 00:33:28;;;;;;;16.42;11.20;;;13.90;99.90;;;;;;5054100;28;20031;-70
2022/08/05 00:35:54;;;;;;;16.50;11.48;;;13.90;99.90;;;;;;5054579;28;20104;-70
2022/08/05 00:38:20;;;;;;;21.55;12.43;;;13.90;99.90;;;;;;5054343;28;20079;-69
2022/08/05 00:40:54;;;;;;;18.33;13.27;;;13.90;99.90;;;;;;5054533;28;20021;-70
2022/08/05 00:43:20;;;;;;;17.85;12.57;;;13.90;99.90;;;;;;5050768;28;20053;-70
2022/08/05 00:45:46;;;;;;;14.82;10.60;;;13.90;99.90;;;;;;5053504;28;20060;-69
2022/08/05 00:48:22;;;;;;;16.25;9.60;;;13.90;99.90;;;;;;5054414;28;20029;-69
2022/08/05 00:50:50;;;;;;;22.20;11.50;;;13.80;99.90;;;;;;5054561;28;20112;-69
2022/08/05 00:53:18;;;;;;;21.40;12.20;;;13.70;99.90;;;;;;5054245;28;20028;-69
2022/08/05 00:55:44;;;;;;;19.30;12.23;;;13.70;99.90;;;;;;5054108;28;20025;-69
2022/08/05 00:58:11;;;;;;;21.20;12.65;;;13.70;99.90;;;;;;5053983;28;20037;-69
2022/08/05 01:00:38;;;;;;;23.60;13.77;;;13.70;99.90;;;;;;5052682;28;20025;-69
2022/08/05 01:03:04;;;;;;;22.10;12.45;;;13.70;99.90;;;;;;5054150;28;20017;-69
2022/08/05 01:05:29;;;;;;;17.42;10.77;;;13.70;99.90;;;;;;5040614;28;20078;-69
2022/08/05 01:07:55;;;;;;;13.82;8.70;;;13.70;99.90;;;;;;5051160;28;20021;-69
2022/08/05 01:10:30;;;;;;;10.40;8.82;;;13.70;99.90;;;;;;5054023;28;20021;-69
2022/08/05 01:13:02;;;;;;;10.50;8.20;;;13.70;99.90;;;;;;5045749;28;20017;-69
2022/08/05 01:15:38;;;;;;;15.35;9.30;;;13.60;99.90;;;;;;5054133;28;20036;-69
2022/08/05 01:18:09;;;;;;;14.93;10.48;;;13.60;99.90;;;;;;5053988;28;20432;-69
2022/08/05 01:20:45;;;;;;;22.08;10.73;;;13.60;99.90;;;;;;5054095;28;20013;-69
2022/08/05 01:23:40;;;;;;;17.83;9.98;;;13.60;99.90;;;;;;5053645;28;20369;-69
2022/08/05 01:26:30;;;;;;;18.23;10.40;;;13.60;99.90;;;;;;5076211;22;20057;-70
2022/08/05 01:29:00;;;;;;;18.55;11.70;;;13.70;99.90;;;;;;5034144;28;20560;-70
2022/08/05 01:31:36;;;;;;;22.27;11.82;;;13.70;99.90;;;;;;5034243;28;20036;-70
2022/08/05 01:34:17;;;;;;;18.77;11.65;;;13.80;99.90;;;;;;5034411;28;20108;-71
2022/08/05 01:36:46;;;;;;;15.20;10.13;;;13.90;99.90;;;;;;5033907;28;20478;-71
2022/08/05 01:39:13;;;;;;;21.52;12.20;;;13.80;99.90;;;;;;5033633;28;20439;-71
2022/08/05 01:41:41;;;;;;;20.77;12.68;;;13.90;99.90;;;;;;5032729;28;20076;-71
2022/08/05 01:44:08;;;;;;;18.85;11.20;;;13.80;99.90;;;;;;5033445;28;20045;-71
2022/08/05 01:46:34;;;;;;;19.08;11.35;;;13.90;99.90;;;;;;5032694;28;20021;-71
2022/08/05 01:49:01;;;;;;;18.60;9.70;;;13.90;99.90;;;;;;5033849;28;20021;-71
2022/08/05 01:51:32;;;;;;;15.90;10.43;;;13.90;99.90;;;;;;5033430;28;20103;-70
2022/08/05 01:53:59;;;;;;;17.35;11.57;;;13.90;99.90;;;;;;5032797;28;20068;-70
2022/08/05 01:56:36;;;;;;;13.60;10.18;;;13.90;99.90;;;;;;5033396;28;20100;-71
2022/08/05 01:59:06;;;;;;;15.23;9.98;;;14.00;99.90;;;;;;5033612;28;20117;-71
2022/08/05 02:01:33;;;;;;;18.92;10.95;;;14.00;99.90;;;;;;5033680;28;20029;-71
2022/08/05 02:04:00;;;;;;;17.58;13.93;;;13.90;99.90;;;;;;5033319;28;20033;-71
2022/08/05 02:06:26;;;;;;;15.85;9.65;;;14.00;99.90;;;;;;5033207;28;20022;-71
2022/08/05 02:08:52;;;;;;;17.23;10.95;;;14.10;99.90;;;;;;5031599;28;20075;-71
2022/08/05 02:11:19;;;;;;;21.38;11.50;;;14.10;99.90;;;;;;5033301;28;20104;-71
2022/08/05 02:14:07;;;;;;;21.45;13.13;;;14.20;99.90;;;;;;5033326;28;20040;-70
2022/08/05 02:16:44;;;;;;;18.52;12.45;;;14.20;99.90;;;;;;5033362;28;20029;-71
2022/08/05 02:19:30;;;;;;;20.63;11.43;;;14.20;99.90;;;;;;5032963;28;20021;-71
2022/08/05 02:22:10;;;;;;;20.25;11.80;;;14.20;99.90;;;;;;5032397;28;20028;-71
2022/08/05 02:24:39;;;;;;;17.83;10.55;;;14.30;99.90;;;;;;5019545;28;20018;-71
2022/08/05 02:27:09;;;;;;;14.00;10.48;;;14.30;99.90;;;;;;5032868;28;20385;-71
2022/08/05 02:29:36;;;;;;;22.75;11.77;;;14.40;99.90;;;;;;5033289;28;20036;-71
2022/08/05 02:32:03;;;;;;;22.35;12.90;;;14.40;99.90;;;;;;5033137;28;20072;-71
2022/08/05 02:34:31;;;;;;;24.13;12.52;;;14.40;99.90;;;;;;5033221;28;20064;-71
2022/08/05 02:37:01;;;;;;;20.90;10.50;;;14.40;99.90;;;;;;5031938;28;20470;-71
2022/08/05 02:39:33;;;;;;;17.95;11.48;;;14.50;99.90;;;;;;5033302;28;20037;-71
2022/08/05 02:41:59;;;;;;;25.25;12.10;;;14.50;99.90;;;;;;5033346;28;20032;-71
2022/08/05 02:44:27;;;;;;;30.92;13.32;;;14.50;99.90;;;;;;5032884;28;20071;-71
2022/08/05 02:46:55;;;;;;;19.42;10.95;;;14.40;99.90;;;;;;5032955;28;20465;-71
2022/08/05 02:49:22;;;;;;;18.05;10.65;;;14.40;99.90;;;;;;5031382;28;20034;-70
2022/08/05 02:51:48;;;;;;;20.55;10.73;;;14.50;99.90;;;;;;5033356;28;20025;-71
2022/08/05 02:54:14;;;;;;;25.75;10.07;;;14.40;99.90;;;;;;5032945;28;20021;-71
2022/08/05 02:56:44;;;;;;;16.77;8.15;;;14.50;99.90;;;;;;5033965;28;20029;-71
2022/08/05 02:59:11;;;;;;;21.38;8.70;;;14.50;99.90;;;;;;5036529;28;20029;-71
2022/08/05 03:01:41;;;;;;;13.70;7.55;;;14.40;99.90;;;;;;5036553;28;20022;-71
2022/08/05 03:04:10;;;;;;;15.48;6.97;;;14.40;99.90;;;;;;5036026;28;20013;-71
2022/08/05 03:06:37;;;;;;;19.05;8.25;;;14.40;99.90;;;;;;5036290;28;20025;-71
2022/08/05 03:09:03;;;;;;;10.27;5.53;;;14.40;99.90;;;;;;5036754;28;20037;-71
2022/08/05 03:11:29;;;;;;;12.90;6.30;;;14.40;99.90;;;;;;5036436;28;20433;-71
2022/08/05 03:13:55;;;;;;;18.63;6.70;;;14.40;99.90;;;;;;5034736;28;20025;-70
2022/08/05 03:16:21;;;;;;;13.60;5.05;;;14.30;99.90;;;;;;5036396;28;20071;-71
2022/08/05 03:18:47;;;;;;;8.02;5.18;;;14.40;99.90;;;;;;5036173;28;20030;-71
2022/08/05 03:21:12;;;;;;;6.43;4.63;;;14.30;99.90;;;;;;5036311;28;20366;-71
2022/08/05 03:23:41;;;;;;;12.95;4.60;;;14.30;99.90;;;;;;5035175;28;20029;-71
2022/08/05 03:26:07;;;;;;;9.02;4.63;;;14.40;99.90;;;;;;5035857;28;20029;-71
2022/08/05 03:28:33;;;;;;;6.90;4.13;;;14.30;99.90;;;;;;5036444;28;20063;-70
2022/08/05 03:31:00;;;;;;;15.15;5.20;;;14.30;99.90;;;;;;5036279;28;20076;-70
2022/08/05 03:33:29;;;;;;;9.45;4.43;;;14.30;99.90;;;;;;5034463;28;20056;-70
2022/08/05 03:35:56;;;;;;;18.77;4.93;;;14.30;99.90;;;;;;5016128;28;20160;-70
2022/08/05 03:38:23;;;;;;;9.00;4.75;;;14.30;99.90;;;;;;5016067;28;20037;-70
2022/08/05 03:40:49;;;;;;;9.05;4.43;;;14.30;99.90;;;;;;5031215;28;20018;-70
2022/08/05 03:43:15;;;;;;;8.30;4.57;;;14.30;99.90;;;;;;5034702;28;20359;-70
2022/08/05 03:45:41;;;;;;;6.05;4.47;;;14.30;99.90;;;;;;5035951;28;20485;-70
2022/08/05 03:48:07;;;;;;;17.88;6.70;;;14.20;99.90;;;;;;5035623;28;20049;-70
2022/08/05 03:50:41;;;;;;;7.88;4.85;;;14.20;99.90;;;;;;5035969;28;20022;-70
2022/08/05 03:53:13;;;;;;;10.40;4.88;;;14.20;99.90;;;;;;5035384;28;20029;-70
2022/08/05 03:55:52;;;;;;;7.03;4.78;;;14.20;99.90;;;;;;5035884;28;20116;-70
2022/08/05 03:58:21;;;;;;;12.15;5.30;;;14.20;99.90;;;;;;5036002;28;20120;-70
2022/08/05 04:00:50;;;;;;;11.63;4.90;;;14.20;99.90;;;;;;5035714;28;20477;-71
2022/08/05 04:03:17;;;;;;;8.63;4.82;;;14.20;99.90;;;;;;5033637;28;20112;-70
2022/08/05 04:05:43;;;;;;;16.08;6.22;;;14.20;99.90;;;;;;5035317;28;20022;-70
2022/08/05 04:08:10;;;;;;;7.82;4.72;;;14.20;99.90;;;;;;5034471;28;20080;-70
2022/08/05 04:10:36;;;;;;;8.75;5.97;;;14.10;99.90;;;;;;5035318;28;20017;-70
2022/08/05 04:13:02;;;;;;;17.27;8.00;;;14.00;99.90;;;;;;5034103;28;20033;-70
2022/08/05 04:15:28;;;;;;;16.42;6.55;;;14.00;99.90;;;;;;5035345;28;20363;-70
2022/08/05 04:17:54;;;;;;;11.05;6.93;;;13.90;99.90;;;;;;5034932;28;20068;-70
2022/08/05 04:20:21;;;;;;;10.00;6.60;;;13.80;99.90;;;;;;5034951;28;20053;-70
2022/08/05 04:22:47;;;;;;;8.93;5.70;;;13.80;99.90;;;;;;5007337;28;20030;-70
2022/08/05 04:25:13;;;;;;;12.30;6.28;;;13.70;99.90;;;;;;5030652;28;20036;-70
2022/08/05 04:27:39;;;;;;;11.60;5.72;;;13.70;99.90;;;;;;5034886;28;20065;-70
2022/08/05 04:30:06;;;;;;;9.23;6.57;;;13.60;99.90;;;;;;5034886;28;20083;-70
2022/08/05 04:32:31;;;;;;;12.50;5.50;;;13.50;99.90;;;;;;5033577;28;20512;-70
2022/08/05 04:34:57;;;;;;;7.13;4.88;;;13.50;99.90;;;;;;5034715;28;20034;-70
2022/08/05 04:37:23;;;;;;;14.07;5.32;;;13.50;99.90;;;;;;5034186;28;20483;-70
2022/08/05 04:39:49;;;;;;;7.10;5.40;;;13.40;99.90;;;;;;5034923;28;20091;-70
2022/08/05 04:42:14;;;;;;;8.95;5.72;;;13.40;99.90;;;;;;5033455;28;20117;-69
2022/08/05 04:44:40;;;;;;;12.02;6.60;;;13.50;99.90;;;;;;5033898;28;20532;-70
2022/08/05 04:47:06;;;;;;;14.18;7.80;;;13.50;99.90;;;;;;5035410;28;20021;-70
2022/08/05 04:49:32;;;;;;;12.88;7.40;;;13.60;99.90;;;;;;5034657;28;20032;-70
2022/08/05 04:51:57;;;;;;;14.95;8.80;;;13.70;99.90;;;;;;5033512;28;20018;-69
2022/08/05 04:54:25;;;;;;;19.95;8.57;;;13.90;99.90;;;;;;5034579;28;20025;-70
2022/08/05 04:56:52;;;;;;;9.90;8.75;;;14.10;99.90;;;;;;5034474;28;20389;-70
2022/08/05 04:59:19;;;;;;;13.65;7.45;;;14.20;99.90;;;;;;5034282;28;20022;-70
2022/08/05 05:01:44;;;;;;;15.90;8.20;;;14.30;99.90;;;;;;5033665;28;20018;-69
2022/08/05 05:04:10;;;;;;;15.27;8.00;;;14.40;99.90;;;;;;5032291;28;20575;-70
2022/08/05 05:06:36;;;;;;;10.75;7.30;;;14.50;99.90;;;;;;5034119;28;20071;-70
2022/08/05 05:09:02;;;;;;;17.52;8.07;;;14.40;99.90;;;;;;5034241;28;20057;-70
2022/08/05 05:11:27;;;;;;;18.77;8.15;;;14.50;99.90;;;;;;5034351;28;20468;-71
2022/08/05 05:13:53;;;;;;;12.85;7.30;;;14.70;99.90;;;;;;5032882;28;20485;-70
2022/08/05 05:16:19;;;;;;;16.70;8.27;;;14.90;99.90;;;;;;5034026;28;20385;-70
2022/08/05 05:18:44;;;;;;;12.10;4.97;;;15.00;99.90;;;;;;5033799;28;20499;-70
2022/08/05 05:21:10;;;;;;;12.52;5.60;;;15.00;99.90;;;;;;5034240;28;20167;-71
2022/08/05 05:23:35;;;;;;;26.30;6.93;;;15.00;99.90;;;;;;5032140;28;20025;-70
2022/08/05 05:26:01;;;;;;;13.55;6.78;;;15.00;99.90;;;;;;5033730;28;20102;-70
2022/08/05 05:28:26;;;;;;;11.40;5.53;;;15.00;99.90;;;;;;5034117;28;20021;-70
2022/08/05 05:30:52;;;;;;;20.67;5.00;;;15.20;99.90;;;;;;5034301;28;20075;-70
2022/08/05 05:33:18;;;;;;;19.42;5.25;;;15.20;99.90;;;;;;5032788;28;20025;-70
2022/08/05 05:35:45;;;;;;;9.63;4.28;;;15.40;99.90;;;;;;5033683;28;20025;-70
2022/08/05 05:38:11;;;;;;;15.35;3.80;;;15.50;99.90;;;;;;5033907;28;20025;-70
2022/08/05 05:40:37;;;;;;;12.50;4.00;;;15.60;99.90;;;;;;5033545;28;20453;-70
2022/08/05 05:43:02;;;;;;;14.10;4.35;;;15.60;99.90;;;;;;5033050;28;20067;-70
2022/08/05 05:45:28;;;;;;;25.63;3.70;;;15.90;99.90;;;;;;5033953;28;20068;-70
2022/08/05 05:47:56;;;;;;;11.50;3.10;;;16.10;99.90;;;;;;5034068;28;20032;-70
2022/08/05 05:50:22;;;;;;;14.98;3.65;;;16.20;99.90;;;;;;5033377;28;20030;-70
2022/08/05 05:52:47;;;;;;;12.57;2.70;;;16.30;99.90;;;;;;5032470;28;20070;-70
2022/08/05 05:55:14;;;;;;;24.25;2.92;;;16.40;99.90;;;;;;5032728;28;20044;-70
2022/08/05 05:57:45;;;;;;;8.50;2.58;;;16.60;99.90;;;;;;5033470;28;20030;-70
2022/08/05 06:00:16;;;;;;;10.48;2.78;;;16.70;99.90;;;;;;5033272;28;20029;-70
2022/08/05 06:02:42;;;;;;;11.85;3.55;;;16.80;99.90;;;;;;5033884;28;20028;-70
2022/08/05 06:05:09;;;;;;;10.68;3.15;;;16.80;99.90;;;;;;5032422;28;20022;-70
2022/08/05 06:07:34;;;;;;;8.85;2.28;;;16.80;99.90;;;;;;5033268;28;20045;-70
2022/08/05 06:10:00;;;;;;;9.27;2.03;;;16.80;99.90;;;;;;5033309;28;20107;-70
2022/08/05 06:12:26;;;;;;;16.02;2.38;;;16.80;99.90;;;;;;5033459;28;20026;-70
2022/08/05 06:14:51;;;;;;;14.10;3.13;;;16.90;99.90;;;;;;5033003;28;20037;-70
2022/08/05 06:17:17;;;;;;;12.30;2.45;;;16.80;99.90;;;;;;5033820;28;20478;-70
2022/08/05 06:19:43;;;;;;;10.38;2.83;;;16.90;99.90;;;;;;5033684;28;20048;-70
2022/08/05 06:22:08;;;;;;;22.80;2.10;;;17.10;99.90;;;;;;5033062;28;20500;-70
2022/08/05 06:24:39;;;;;;;13.27;2.90;;;17.10;99.90;;;;;;5032012;28;20409;-70
2022/08/05 06:27:05;;;;;;;8.57;2.53;;;17.20;99.90;;;;;;5033016;28;20108;-70
2022/08/05 06:29:31;;;;;;;6.30;1.65;;;17.10;99.90;;;;;;5033071;28;20061;-70
2022/08/05 06:31:56;;;;;;;8.48;1.77;;;17.10;99.90;;;;;;5034859;28;20041;-70
2022/08/05 06:34:22;;;;;;;9.07;1.75;;;17.00;99.90;;;;;;5036186;28;20187;-70
2022/08/05 06:36:48;;;;;;;10.75;1.63;;;17.10;99.90;;;;;;5036928;28;20025;-70
2022/08/05 06:39:13;;;;;;;9.30;1.85;;;17.00;99.90;;;;;;5036820;28;20029;-70
2022/08/05 06:41:39;;;;;;;6.88;1.88;;;17.00;99.90;;;;;;5036941;28;20022;-70
2022/08/05 06:44:05;;;;;;;7.45;1.80;;;16.90;99.90;;;;;;5035981;28;20025;-69
2022/08/05 06:46:30;;;;;;;11.02;1.83;;;16.80;99.90;;;;;;5035690;28;20120;-71
2022/08/05 06:48:57;;;;;;;10.95;1.73;;;16.80;99.90;;;;;;5037050;28;20021;-71
2022/08/05 06:51:23;;;;;;;10.52;1.50;;;16.80;99.90;;;;;;5036783;28;20017;-71
2022/08/05 06:53:48;;;;;;;10.63;2.17;;;16.80;99.90;;;;;;5033738;28;20021;-71
2022/08/05 06:56:14;;;;;;;17.52;2.03;;;16.80;99.90;;;;;;5036593;28;20367;-71
2022/08/05 06:58:40;;;;;;;10.30;2.05;;;16.90;99.90;;;;;;5036579;28;20032;-71
2022/08/05 07:01:05;;;;;;;11.75;1.60;;;16.80;99.90;;;;;;5036472;28;20049;-71
2022/08/05 07:03:31;;;;;;;15.90;1.83;;;16.90;99.90;;;;;;5033994;28;20022;-70
2022/08/05 07:05:57;;;;;;;8.90;1.83;;;16.90;99.90;;;;;;5033850;28;20059;-71
2022/08/05 07:08:23;;;;;;;10.40;1.70;;;17.00;99.90;;;;;;5035578;28;20401;-71
2022/08/05 07:10:50;;;;;;;13.50;2.03;;;17.10;99.90;;;;;;5019075;28;20366;-71
2022/08/05 07:18:44;;;;;;;11.70;2.17;;;17.10;99.90;;;;;;5036400;28;20033;-71
2022/08/05 07:21:09;;;;;;;6.30;1.40;;;17.10;99.90;;;;;;5036250;28;20018;-71
2022/08/05 07:23:36;;;;;;;10.52;1.45;;;17.10;99.90;;;;;;5036215;28;20021;-71
2022/08/05 07:26:02;;;;;;;5.82;1.33;;;17.00;99.90;;;;;;5035877;28;20030;-71
2022/08/05 07:28:29;;;;;;;7.65;1.60;;;17.10;99.90;;;;;;5036503;28;20107;-71
2022/08/05 07:30:54;;;;;;;5.70;1.63;;;17.10;99.90;;;;;;5036040;28;20029;-70
2022/08/05 07:33:20;;;;;;;7.43;1.73;;;17.20;99.90;;;;;;5036080;28;20100;-70
2022/08/05 07:35:46;;;;;;;10.48;2.45;;;17.30;99.90;;;;;;5034910;28;20105;-70
2022/08/05 07:38:16;;;;;;;8.95;1.92;;;17.30;99.90;;;;;;5034931;28;20370;-70
2022/08/05 07:40:42;;;;;;;5.10;2.00;;;17.30;99.90;;;;;;5034354;28;20397;-71
2022/08/05 07:43:08;;;;;;;9.40;1.70;;;17.20;99.90;;;;;;5011795;28;20101;-70
2022/08/05 07:45:34;;;;;;;6.53;1.42;;;17.30;99.90;;;;;;5024150;28;20053;-71
2022/08/05 07:47:59;;;;;;;9.25;2.72;;;17.30;99.90;;;;;;5036008;28;20108;-71
2022/08/05 07:50:25;;;;;;;6.32;1.17;;;17.30;99.90;;;;;;5035668;28;20032;-71
2022/08/05 07:52:50;;;;;;;4.85;1.55;;;17.30;99.90;;;;;;5034520;28;20091;-70
2022/08/05 07:55:16;;;;;;;9.77;1.52;;;17.30;99.90;;;;;;5017320;28;20397;-71
2022/08/05 07:57:42;;;;;;;6.20;1.02;;;17.30;99.90;;;;;;5035373;28;20057;-70
2022/08/05 08:00:08;;;;;;;9.82;1.85;;;17.30;99.90;;;;;;5035740;28;20080;-70
2022/08/05 08:02:34;;;;;;;12.82;1.65;;;17.20;99.90;;;;;;5036278;28;20029;-70
2022/08/05 08:05:00;;;;;;;6.97;1.70;;;17.20;99.90;;;;;;5035949;28;20021;-70
2022/08/05 08:07:26;;;;;;;6.50;1.63;;;17.30;99.90;;;;;;5034350;28;20017;-70
2022/08/05 08:09:51;;;;;;;4.50;1.35;;;17.40;99.90;;;;;;5034744;28;20389;-70
2022/08/05 08:12:17;;;;;;;12.57;1.55;;;17.50;99.90;;;;;;5035899;28;20025;-70
2022/08/05 08:14:43;;;;;;;4.55;1.23;;;17.70;99.90;;;;;;5035520;28;20079;-70
2022/08/05 08:17:12;;;;;;;4.95;1.10;;;17.90;99.90;;;;;;5035344;28;20033;-70
2022/08/05 08:19:41;;;;;;;4.25;1.08;;;17.90;99.90;;;;;;5033974;28;20037;-70
2022/08/05 08:22:07;;;;;;;8.23;1.38;;;17.80;99.90;;;;;;5035108;28;20024;-70
2022/08/05 08:24:34;;;;;;;6.00;1.20;;;17.60;99.90;;;;;;5035481;28;20033;-69
2022/08/05 08:26:59;;;;;;;3.58;0.80;;;17.60;99.90;;;;;;5035184;28;20033;-70
2022/08/05 08:29:25;;;;;;;7.68;1.98;;;17.70;99.90;;;;;;5033185;28;20383;-70
2022/08/05 08:31:51;;;;;;;10.77;2.00;;;17.80;99.90;;;;;;5035200;28;20041;-70
2022/08/05 08:34:18;;;;;;;6.30;1.40;;;18.00;99.90;;;;;;5035010;28;20123;-70
2022/08/05 08:36:44;;;;;;;5.50;1.48;;;18.20;99.90;;;;;;5035080;28;20042;-69
2022/08/05 08:39:09;;;;;;;8.82;1.48;;;18.20;99.90;;;;;;5033880;28;20390;-70
2022/08/05 08:41:39;;;;;;;7.47;2.13;;;18.40;99.90;;;;;;5034123;28;20044;-70
2022/08/05 08:44:07;;;;;;;4.18;1.27;;;18.60;99.90;;;;;;5034828;28;20025;-70
2022/08/05 08:46:33;;;;;;;5.05;1.20;;;18.70;99.90;;;;;;5034871;28;20014;-70
2022/08/05 08:49:02;;;;;;;4.22;1.08;;;18.70;99.90;;;;;;5033643;28;20083;-70
2022/08/05 08:51:32;;;;;;;8.05;1.30;;;18.70;99.90;;;;;;5035067;28;20021;-70
2022/08/05 08:53:58;;;;;;;4.90;1.10;;;19.00;99.90;;;;;;5034500;28;20029;-71
2022/08/05 08:56:24;;;;;;;11.20;1.42;;;19.50;99.90;;;;;;5034489;28;20057;-70
2022/08/05 08:58:50;;;;;;;11.38;1.30;;;19.80;99.90;;;;;;5033349;28;20076;-71
2022/08/05 09:01:17;;;;;;;9.68;1.20;;;19.90;99.90;;;;;;5035450;28;20402;-70
2022/08/05 09:03:51;;;;;;;3.80;1.20;;;20.00;99.90;;;;;;5034308;28;20025;-70
2022/08/05 09:06:17;;;;;;;4.47;1.17;;;20.30;99.90;;;;;;5034401;28;20018;-70
2022/08/05 09:08:43;;;;;;;4.18;1.10;;;20.30;99.90;;;;;;5032979;28;20037;-70
2022/08/05 09:11:08;;;;;;;7.93;1.20;;;20.00;99.90;;;;;;5034115;28;20385;-70
2022/08/05 09:13:35;;;;;;;5.60;1.33;;;19.90;99.90;;;;;;5033403;28;20025;-70
2022/08/05 09:16:02;;;;;;;3.17;0.80;;;19.80;99.90;;;;;;5034359;28;20033;-70
2022/08/05 09:18:28;;;;;;;12.80;1.73;;;19.90;99.90;;;;;;5013850;28;20079;-69
2022/08/05 09:20:54;;;;;;;17.65;1.67;;;20.30;99.90;;;;;;5032460;28;20056;-70
2022/08/05 09:23:20;;;;;;;7.25;1.52;;;20.90;99.90;;;;;;5034041;28;20083;-70
2022/08/05 09:25:51;;;;;;;9.05;2.17;;;21.10;99.90;;;;;;5033807;28;20025;-70
2022/08/05 09:28:26;;;;;;;3.85;0.98;;;20.90;99.90;;;;;;5032872;28;20029;-70
2022/08/05 09:31:09;;;;;;;2.10;0.80;;;21.10;99.90;;;;;;5033825;28;20381;-70
2022/08/05 09:33:49;;;;;;;5.72;1.10;;;21.20;99.90;;;;;;5034246;28;20026;-70
2022/08/05 09:36:15;;;;;;;4.15;0.98;;;21.40;99.90;;;;;;5033598;28;20053;-70
2022/08/05 09:38:58;;;;;;;11.57;1.70;;;21.60;99.90;;;;;;5032769;28;20046;-70
2022/08/05 09:41:24;;;;;;;7.45;1.80;;;21.40;99.90;;;;;;5033616;28;20021;-70
2022/08/05 09:43:50;;;;;;;4.97;1.20;;;21.40;99.90;;;;;;5032641;28;20087;-70
2022/08/05 09:46:32;;;;;;;8.00;1.08;;;21.30;99.90;;;;;;5033506;28;20445;-70
2022/08/05 09:49:03;;;;;;;4.28;0.85;;;21.30;99.90;;;;;;5032591;28;20152;-70
2022/08/05 09:51:34;;;;;;;4.32;1.45;;;21.80;99.90;;;;;;5033876;28;20025;-70
2022/08/05 09:54:03;;;;;;;11.52;1.17;;;21.80;99.90;;;;;;5033716;28;20466;-70
2022/08/05 09:56:33;;;;;;;7.93;1.58;;;21.40;99.90;;;;;;5033479;28;20033;-70
2022/08/05 09:59:08;;;;;;;4.15;0.93;;;21.10;99.90;;;;;;5031777;28;20021;-70
2022/08/05 10:01:35;;;;;;;4.72;1.13;;;21.10;99.90;;;;;;5033655;28;20022;-70
2022/08/05 10:04:07;;;;;;;11.93;1.13;;;21.00;99.90;;;;;;5033170;28;20025;-70
2022/08/05 10:06:33;;;;;;;5.75;1.20;;;21.00;99.90;;;;;;5032739;28;20384;-70
2022/08/05 10:09:16;;;;;;;3.28;0.77;;;21.00;99.90;;;;;;5032254;28;20504;-70
2022/08/05 10:11:43;;;;;;;3.30;1.10;;;21.00;99.90;;;;;;5033661;28;20385;-71
2022/08/05 10:14:29;;;;;;;8.63;1.02;;;20.80;99.90;;;;;;5033238;28;20037;-70
2022/08/05 10:16:57;;;;;;;8.13;1.48;;;20.70;99.90;;;;;;5033575;28;20025;-71
2022/08/05 10:19:25;;;;;;;2.65;0.82;;;20.80;99.90;;;;;;5032464;28;20026;-70
2022/08/05 10:21:50;;;;;;;3.75;1.20;;;20.90;99.90;;;;;;5020277;28;20061;-70
2022/08/05 10:24:18;;;;;;;6.45;1.15;;;21.00;99.90;;;;;;5027614;28;20101;-70
2022/08/05 10:26:46;;;;;;;2.88;0.70;;;21.10;99.90;;;;;;5025284;28;20029;-70
2022/08/05 10:29:11;;;;;;;4.63;0.95;;;21.30;99.90;;;;;;5010743;28;20041;-70
2022/08/05 10:31:40;;;;;;;3.45;0.90;;;21.50;99.90;;;;;;5029862;28;20101;-70
2022/08/05 10:34:08;;;;;;;3.40;0.60;;;21.40;99.90;;;;;;5018127;28;20022;-69
2022/08/05 10:36:38;;;;;;;6.07;0.80;;;21.30;99.90;;;;;;5029079;28;20071;-71
2022/08/05 10:39:20;;;;;;;2.72;0.82;;;21.20;99.90;;;;;;5021448;28;20037;-70
2022/08/05 10:42:06;;;;;;;3.45;0.85;;;21.10;99.90;;;;;;5024819;28;20509;-70
2022/08/05 10:44:33;;;;;;;3.42;0.93;;;21.20;99.90;;;;;;5028188;28;20028;-71
2022/08/05 10:47:09;;;;;;;3.33;1.08;;;21.40;99.90;;;;;;5019424;28;20014;-71
2022/08/05 10:50:00;;;;;;;1.05;0.70;;;21.60;99.90;;;;;;5029468;28;20036;-70
2022/08/05 10:52:42;;;;;;;2.67;0.90;;;21.80;99.90;;;;;;5022964;28;20053;-71
2022/08/05 10:55:12;;;;;;;1.00;0.52;;;22.00;99.90;;;;;;5023584;28;20029;-71
2022/08/05 10:57:43;;;;;;;3.92;0.77;;;22.00;99.90;;;;;;5019625;28;20032;-70
2022/08/05 11:00:18;;;;;;;2.55;0.70;;;22.10;99.90;;;;;;5019322;28;20030;-70
2022/08/05 11:03:02;;;;;;;3.90;0.95;;;22.40;99.90;;;;;;5024020;28;20022;-71
2022/08/05 11:05:28;;;;;;;3.30;0.70;;;22.50;99.90;;;;;;5029880;28;20371;-71
2022/08/05 11:08:20;;;;;;;4.65;0.70;;;22.20;99.90;;;;;;5031926;28;20030;-71
2022/08/05 11:10:45;;;;;;;6.38;0.70;;;22.10;99.90;;;;;;5028290;28;20064;-71
2022/08/05 11:13:38;;;;;;;2.35;0.98;;;22.20;99.90;;;;;;5032987;28;20494;-71
2022/08/05 11:16:23;;;;;;;1.85;0.68;;;22.40;99.90;;;;;;5032713;28;20014;-71
2022/08/05 11:19:30;;;;;;;6.80;0.70;;;22.60;99.90;;;;;;5034050;28;20038;-71
2022/08/05 11:22:34;;;;;;;2.08;0.85;;;23.00;99.90;;;;;;5028302;28;20426;-71
2022/08/05 11:25:36;;;;;;;5.10;0.90;;;22.90;99.90;;;;;;5025539;28;20010;-71
2022/08/05 11:28:10;;;;;;;2.53;0.70;;;23.20;99.90;;;;;;5034969;28;20037;-69
2022/08/05 11:30:54;;;;;;;2.08;0.75;;;22.90;99.90;;;;;;5036306;28;20101;-71
2022/08/05 11:33:28;;;;;;;5.85;0.82;;;22.60;99.90;;;;;;5027730;28;20025;-71
2022/08/05 11:36:01;;;;;;;1.75;0.57;;;22.50;99.90;;;;;;5036039;28;20032;-70
2022/08/05 11:38:47;;;;;;;3.03;0.85;;;22.50;99.90;;;;;;5034978;28;20034;-68
2022/08/05 11:41:19;;;;;;;3.50;0.88;;;22.90;99.90;;;;;;5036136;28;20030;-71
2022/08/05 11:44:05;;;;;;;4.43;1.30;;;22.90;99.90;;;;;;5036089;28;20074;-71
2022/08/05 11:46:32;;;;;;;1.77;0.50;;;22.60;99.90;;;;;;5035139;28;20029;-71
2022/08/05 11:48:59;;;;;;;4.45;0.68;;;22.10;99.90;;;;;;5035955;28;20112;-71
2022/08/05 11:51:26;;;;;;;3.72;1.10;;;21.90;99.90;;;;;;5035968;28;20040;-71
2022/08/05 11:53:53;;;;;;;7.57;0.93;;;21.60;99.90;;;;;;5035990;28;20021;-71
2022/08/05 11:56:19;;;;;;;6.68;0.73;;;21.40;99.90;;;;;;5034849;28;20040;-71
2022/08/05 11:58:46;;;;;;;1.83;0.60;;;21.20;99.90;;;;;;5035795;28;20032;-71
2022/08/05 12:01:19;;;;;;;2.75;0.65;;;21.30;99.90;;;;;;5036486;28;20374;-71
2022/08/05 12:03:48;;;;;;;3.75;0.70;;;21.60;99.90;;;;;;5035769;28;20026;-71
2022/08/05 12:06:15;;;;;;;6.90;0.73;;;21.90;99.90;;;;;;5034495;28;20105;-71
2022/08/05 12:08:46;;;;;;;7.47;1.13;;;22.40;99.90;;;;;;5036229;28;20036;-71
2022/08/05 12:11:19;;;;;;;4.82;0.93;;;22.80;99.90;;;;;;5035763;28;20037;-71
2022/08/05 12:13:53;;;;;;;0.70;0.60;;;23.40;99.90;;;;;;5035668;28;20026;-71
2022/08/05 12:16:20;;;;;;;4.90;0.95;;;24.30;99.90;;;;;;5016766;28;20056;-71
2022/08/05 12:18:45;;;;;;;2.55;0.60;;;24.20;99.90;;;;;;5034596;28;20108;-71
2022/08/05 12:21:32;;;;;;;11.02;0.93;;;24.00;99.90;;;;;;5035619;28;20022;-71
2022/08/05 12:24:07;;;;;;;9.85;1.10;;;23.90;99.90;;;;;;5035294;28;20481;-71
2022/08/05 12:26:34;;;;;;;2.80;0.80;;;23.90;99.90;;;;;;5033981;28;20064;-71
2022/08/05 12:29:00;;;;;;;1.05;0.40;;;23.30;99.90;;;;;;5033598;28;20029;-71
2022/08/05 12:31:26;;;;;;;2.03;0.55;;;22.50;99.90;;;;;;5035224;28;20017;-71
2022/08/05 12:33:53;;;;;;;4.05;0.93;;;22.10;99.90;;;;;;5035108;28;20444;-71
2022/08/05 12:36:19;;;;;;;4.55;1.17;;;21.60;99.90;;;;;;5034263;28;20073;-71
2022/08/05 12:38:45;;;;;;;1.77;0.60;;;21.20;99.90;;;;;;5035374;28;20033;-71
2022/08/05 12:41:12;;;;;;;2.50;1.17;;;20.90;99.90;;;;;;5035146;28;20629;-71
2022/08/05 12:43:55;;;;;;;3.25;0.85;;;20.90;99.90;;;;;;5035663;28;20022;-71
2022/08/05 12:46:29;;;;;;;7.45;1.00;;;20.90;99.90;;;;;;5034014;28;20029;-71
2022/08/05 12:49:13;;;;;;;6.18;1.00;;;21.00;99.90;;;;;;5034819;28;20481;-71
2022/08/05 12:51:54;;;;;;;5.10;0.73;;;21.20;99.90;;;;;;5034882;28;20017;-71
2022/08/05 12:54:30;;;;;;;9.05;1.10;;;21.10;99.90;;;;;;5034844;28;20073;-71
2022/08/05 12:57:01;;;;;;;9.43;0.95;;;21.00;99.90;;;;;;5034178;28;20075;-71